createdAt,value
2018-05-23T00:02:05.889Z,99.90
2018-05-23T00:04:41.332Z,99.90
2018-05-23T00:07:17.296Z,99.90
2018-05-23T00:09:54.267Z,99.90
2018-05-23T00:12:29.343Z,99.90
2018-05-23T00:15:05.485Z,99.90
2018-05-23T00:17:41.343Z,99.90
2018-05-23T00:20:17.531Z,99.90
2018-05-23T00:22:53.975Z,99.90
2018-05-23T00:25:29.984Z,99.90
2018-05-23T00:28:08.065Z,99.90
2018-05-23T00:30:44.533Z,99.90
2018-05-23T00:33:20.139Z,99.90
2018-05-23T00:35:55.179Z,99.90
2018-05-23T00:38:31.142Z,99.90
2018-05-23T00:41:06.982Z,99.90
2018-05-23T00:43:43.087Z,99.90
2018-05-23T00:46:18.688Z,99.90
2018-05-23T00:48:54.077Z,99.90
2018-05-23T00:51:29.168Z,99.90
2018-05-23T00:54:05.023Z,99.90
2018-05-23T00:56:39.854Z,99.90
2018-05-23T00:59:15.631Z,99.90
2018-05-23T01:01:50.962Z,99.90
2018-05-23T01:04:26.514Z,99.90
2018-05-23T01:07:02.451Z,99.90
2018-05-23T01:09:37.596Z,99.90
2018-05-23T01:12:12.625Z,99.90
2018-05-23T01:14:47.865Z,99.90
2018-05-23T01:17:22.697Z,99.90
2018-05-23T01:19:58.347Z,99.90
2018-05-23T01:22:33.381Z,99.90
2018-05-23T01:25:09.338Z,99.90
2018-05-23T01:27:44.108Z,99.90
2018-05-23T01:30:19.202Z,99.90
2018-05-23T01:32:54.603Z,99.90
2018-05-23T01:35:29.993Z,99.90
2018-05-23T01:38:05.023Z,99.90
2018-05-23T01:40:40.678Z,99.90
2018-05-23T01:43:16.427Z,99.90
2018-05-23T01:45:53.102Z,99.90
2018-05-23T01:48:34.074Z,99.90
2018-05-23T01:51:09.262Z,99.90
2018-05-23T01:53:45.576Z,99.90
2018-05-23T01:56:20.816Z,99.90
2018-05-23T01:58:56.464Z,99.90
2018-05-23T02:01:31.711Z,99.90
2018-05-23T02:04:07.151Z,99.90
2018-05-23T02:06:43.218Z,99.90
2018-05-23T02:09:17.980Z,99.90
2018-05-23T02:11:53.917Z,99.90
2018-05-23T02:14:29.353Z,99.90
2018-05-23T02:17:05.092Z,99.90
2018-05-23T02:19:40.132Z,99.90
2018-05-23T02:22:16.230Z,99.90
2018-05-23T02:24:52.246Z,99.90
2018-05-23T02:27:29.124Z,99.90
2018-05-23T02:30:05.186Z,99.90
2018-05-23T02:32:40.837Z,99.90
2018-05-23T02:35:16.890Z,99.90
2018-05-23T02:37:52.540Z,99.90
2018-05-23T02:40:29.098Z,99.90
2018-05-23T02:43:05.164Z,99.90
2018-05-23T02:45:42.461Z,99.90
2018-05-23T02:48:18.828Z,99.90
2018-05-23T02:50:54.476Z,99.90
2018-05-23T02:53:30.123Z,99.90
2018-05-23T02:56:04.961Z,99.90
2018-05-23T02:58:39.942Z,99.90
2018-05-23T03:01:15.977Z,99.90
2018-05-23T03:03:51.602Z,99.90
2018-05-23T03:06:26.531Z,99.90
2018-05-23T03:09:01.357Z,99.90
2018-05-23T03:11:36.398Z,99.90
2018-05-23T03:14:12.210Z,99.90
2018-05-23T03:16:48.510Z,99.90
2018-05-23T03:19:24.375Z,99.90
2018-05-23T03:21:59.657Z,99.90
2018-05-23T03:27:15.514Z,99.90
2018-05-23T03:29:52.746Z,99.90
2018-05-23T03:32:27.575Z,99.90
2018-05-23T03:35:03.694Z,99.90
2018-05-23T03:37:40.573Z,99.90
2018-05-23T03:40:16.136Z,99.90
2018-05-23T03:42:52.184Z,99.90
2018-05-23T03:45:29.259Z,99.90
2018-05-23T03:48:04.088Z,99.90
2018-05-23T03:50:38.928Z,99.90
2018-05-23T03:53:14.159Z,99.90
2018-05-23T03:55:48.992Z,99.90
2018-05-23T03:58:24.876Z,99.90
2018-05-23T04:01:11.764Z,99.90
2018-05-23T04:03:58.593Z,99.90
2018-05-23T04:06:47.026Z,99.90
2018-05-23T04:09:23.286Z,99.90
2018-05-23T04:11:58.429Z,99.90
2018-05-23T04:14:34.176Z,99.90
2018-05-23T04:17:09.212Z,99.90
2018-05-23T04:19:44.178Z,99.90
2018-05-23T04:22:20.919Z,99.90
2018-05-23T04:24:56.572Z,99.90
2018-05-23T04:27:32.287Z,99.90
2018-05-23T04:30:07.872Z,99.90
2018-05-23T04:32:43.734Z,99.90
2018-05-23T04:35:19.573Z,99.90
2018-05-23T04:37:55.018Z,99.90
2018-05-23T04:40:30.667Z,99.90
2018-05-23T04:43:05.730Z,99.90
2018-05-23T04:45:41.356Z,99.90
2018-05-23T04:48:17.834Z,99.90
2018-05-23T04:50:53.471Z,99.90
2018-05-23T04:53:28.920Z,99.90
2018-05-23T04:56:04.164Z,99.90
2018-05-23T04:58:38.995Z,99.90
2018-05-23T05:01:14.546Z,99.90
2018-05-23T05:03:50.191Z,99.90
2018-05-23T05:06:25.332Z,99.90
2018-05-23T05:09:00.918Z,99.90
2018-05-23T05:11:37.443Z,99.90
2018-05-23T05:14:13.194Z,99.90
2018-05-23T05:16:49.646Z,99.90
2018-05-23T05:19:25.463Z,99.90
2018-05-23T05:22:01.120Z,99.90
2018-05-23T05:24:38.317Z,99.90
2018-05-23T05:27:13.708Z,99.90
2018-05-23T05:29:49.958Z,99.90
2018-05-23T05:32:25.404Z,99.90
2018-05-23T05:35:00.442Z,99.90
2018-05-23T05:37:35.483Z,99.90
2018-05-23T05:40:10.308Z,99.90
2018-05-23T05:42:45.951Z,99.90
2018-05-23T05:45:21.193Z,99.90
2018-05-23T05:47:57.262Z,99.90
2018-05-23T05:50:32.696Z,99.90
2018-05-23T05:53:08.254Z,99.90
2018-05-23T05:55:44.714Z,99.90
2018-05-23T05:58:19.543Z,99.90
2018-05-23T06:00:56.250Z,99.90
2018-05-23T06:03:31.360Z,99.90
2018-05-23T06:06:07.214Z,99.90
2018-05-23T06:08:43.087Z,99.90
2018-05-23T06:11:18.008Z,99.90
2018-05-23T06:13:53.093Z,99.90
2018-05-23T06:16:29.701Z,99.90
2018-05-23T06:19:04.737Z,99.90
2018-05-23T06:21:39.607Z,99.90
2018-05-23T06:24:15.154Z,99.90
2018-05-23T06:26:50.457Z,99.90
2018-05-23T06:29:26.108Z,99.90
2018-05-23T06:32:01.960Z,99.90
2018-05-23T06:34:37.116Z,99.90
2018-05-23T06:37:11.932Z,99.90
2018-05-23T06:39:46.966Z,99.90
2018-05-23T06:42:21.793Z,99.90
2018-05-23T06:44:56.836Z,99.90
2018-05-23T06:47:32.693Z,99.90
2018-05-23T06:50:07.690Z,99.90
2018-05-23T06:52:42.614Z,99.90
2018-05-23T06:55:17.486Z,99.90
2018-05-23T06:57:52.522Z,99.90
2018-05-23T07:00:27.761Z,99.90
2018-05-23T07:03:03.494Z,99.90
2018-05-23T07:05:40.288Z,99.90
2018-05-23T07:08:15.937Z,99.90
2018-05-23T07:10:51.218Z,99.90
2018-05-23T07:13:27.643Z,99.90
2018-05-23T07:16:04.319Z,99.90
2018-05-23T07:18:39.145Z,99.90
2018-05-23T07:21:15.559Z,99.90
2018-05-23T07:23:50.754Z,99.90
2018-05-23T07:26:25.583Z,99.90
2018-05-23T07:29:01.456Z,99.90
2018-05-23T07:31:38.110Z,95.70
2018-05-23T07:34:13.762Z,95.70
2018-05-23T07:36:48.799Z,95.20
2018-05-23T07:39:24.719Z,94.40
2018-05-23T07:42:00.306Z,93.40
2018-05-23T07:44:37.392Z,92.30
2018-05-23T07:47:13.373Z,90.40
2018-05-23T07:49:48.681Z,90.40
2018-05-23T07:52:24.544Z,90.00
2018-05-23T07:54:59.571Z,88.30
2018-05-23T07:57:35.426Z,91.40
2018-05-23T08:00:12.006Z,84.90
2018-05-23T08:02:47.147Z,84.90
2018-05-23T08:05:22.992Z,80.80
2018-05-23T08:07:59.605Z,82.50
2018-05-23T08:10:34.500Z,79.60
2018-05-23T08:13:09.532Z,79.30
2018-05-23T08:15:45.397Z,79.60
2018-05-23T08:18:21.652Z,78.90
2018-05-23T08:20:57.503Z,74.80
2018-05-23T08:23:32.743Z,75.50
2018-05-23T08:26:07.775Z,77.00
2018-05-23T08:28:42.809Z,72.30
2018-05-23T08:31:19.794Z,72.30
2018-05-23T08:34:00.884Z,74.20
2018-05-23T08:36:36.517Z,74.80
2018-05-23T08:39:11.961Z,76.50
2018-05-23T08:41:46.795Z,72.20
2018-05-23T08:44:21.627Z,68.70
2018-05-23T08:46:57.278Z,65.60
2018-05-23T08:49:32.925Z,69.70
2018-05-23T08:52:07.795Z,72.80
2018-05-23T08:54:42.791Z,73.90
2018-05-23T08:57:18.439Z,75.30
2018-05-23T08:59:54.096Z,75.30
2018-05-23T09:02:29.948Z,69.40
2018-05-23T09:05:05.419Z,66.50
2018-05-23T09:07:40.843Z,69.70
2018-05-23T09:10:15.664Z,68.80
2018-05-23T09:12:50.509Z,67.70
2018-05-23T09:15:26.912Z,67.90
2018-05-23T09:18:02.003Z,67.90
2018-05-23T09:20:38.269Z,74.70
2018-05-23T09:23:13.710Z,74.70
2018-05-23T09:25:49.363Z,74.30
2018-05-23T09:28:24.952Z,70.40
2018-05-23T09:31:00.652Z,72.30
2018-05-23T09:33:35.488Z,73.00
2018-05-23T09:36:10.324Z,72.40
2018-05-23T09:38:45.555Z,76.60
2018-05-23T09:41:21.209Z,76.70
2018-05-23T09:43:56.238Z,76.80
2018-05-23T09:46:31.898Z,76.20
2018-05-23T09:49:06.716Z,80.30
2018-05-23T09:51:42.368Z,82.60
2018-05-23T09:54:18.836Z,79.30
2018-05-23T09:56:53.667Z,79.20
2018-05-23T09:59:29.318Z,76.70
2018-05-23T10:02:04.315Z,75.50
2018-05-23T10:04:40.001Z,72.40
2018-05-23T10:07:15.853Z,70.70
2018-05-23T10:09:52.322Z,75.30
2018-05-23T10:12:27.360Z,75.30
2018-05-23T10:15:02.813Z,75.50
2018-05-23T10:17:39.068Z,69.60
2018-05-23T10:20:14.923Z,69.60
2018-05-23T10:22:50.579Z,69.00
2018-05-23T10:25:26.224Z,67.30
2018-05-23T10:28:01.461Z,68.40
2018-05-23T10:30:37.109Z,66.90
2018-05-23T10:33:11.944Z,66.00
2018-05-23T10:35:47.406Z,67.80
2018-05-23T10:38:22.537Z,64.30
2018-05-23T10:40:58.279Z,63.40
2018-05-23T10:43:33.518Z,64.10
2018-05-23T10:46:08.555Z,63.40
2018-05-23T10:48:44.210Z,66.50
2018-05-23T10:51:19.849Z,66.90
2018-05-23T10:53:54.679Z,66.30
2018-05-23T10:56:29.663Z,65.10
2018-05-23T10:59:05.363Z,63.40
2018-05-23T11:01:40.952Z,64.20
2018-05-23T11:04:16.609Z,64.20
2018-05-23T11:06:51.494Z,65.60
2018-05-23T11:09:27.687Z,64.90
2018-05-23T11:12:03.139Z,63.10
2018-05-23T11:14:38.859Z,63.70
2018-05-23T11:17:13.890Z,64.20
2018-05-23T11:19:49.541Z,65.00
2018-05-23T11:22:24.371Z,66.10
2018-05-23T11:25:00.019Z,67.70
2018-05-23T11:27:34.857Z,67.90
2018-05-23T11:30:10.431Z,65.10
2018-05-23T11:32:46.258Z,61.00
2018-05-23T11:35:21.078Z,59.30
2018-05-23T11:37:56.171Z,58.90
2018-05-23T11:40:32.179Z,59.90
2018-05-23T11:43:07.448Z,62.80
2018-05-23T11:45:42.348Z,61.20
2018-05-23T11:48:18.202Z,61.40
2018-05-23T11:50:53.788Z,59.70
2018-05-23T11:53:29.706Z,60.20
2018-05-23T11:56:05.196Z,62.80
2018-05-23T11:58:41.825Z,60.60
2018-05-23T12:01:16.757Z,60.50
2018-05-23T12:03:52.408Z,56.80
2018-05-23T12:06:30.264Z,59.50
2018-05-23T12:09:06.418Z,59.50
2018-05-23T12:11:41.659Z,60.70
2018-05-23T12:14:17.566Z,58.90
2018-05-23T12:16:52.906Z,58.50
2018-05-23T12:19:27.841Z,59.20
2018-05-23T12:22:03.491Z,59.10
2018-05-23T12:24:39.142Z,57.90
2018-05-23T12:27:14.889Z,57.50
2018-05-23T12:29:49.718Z,58.40
2018-05-23T12:32:25.472Z,60.10
2018-05-23T12:35:00.309Z,58.90
2018-05-23T12:37:36.159Z,57.50
2018-05-23T12:40:11.196Z,60.00
2018-05-23T12:42:46.991Z,58.20
2018-05-23T12:45:22.697Z,54.80
2018-05-23T12:47:58.549Z,59.60
2018-05-23T12:50:33.996Z,62.70
2018-05-23T12:53:09.643Z,63.10
2018-05-23T12:55:44.579Z,62.40
2018-05-23T12:58:20.232Z,57.70
2018-05-23T13:00:55.059Z,59.70
2018-05-23T13:03:29.907Z,58.10
2018-05-23T13:06:06.359Z,59.30
2018-05-23T13:08:42.315Z,62.90
2018-05-23T13:11:17.359Z,62.70
2018-05-23T13:13:53.000Z,65.40
2018-05-23T13:16:29.415Z,71.10
2018-05-23T13:19:04.299Z,71.00
2018-05-23T13:21:39.950Z,72.90
2018-05-23T13:24:17.031Z,74.70
2018-05-23T13:26:52.478Z,74.60
2018-05-23T13:29:28.124Z,80.30
2018-05-23T13:32:03.987Z,82.40
2018-05-23T13:34:39.730Z,79.70
2018-05-23T13:37:15.905Z,84.50
2018-05-23T13:39:51.650Z,87.70
2018-05-23T13:42:26.610Z,87.70
2018-05-23T13:45:02.328Z,88.30
2018-05-23T13:47:38.963Z,90.50
2018-05-23T13:50:14.041Z,90.40
2018-05-23T13:52:49.634Z,88.20
2018-05-23T13:55:25.337Z,88.20
2018-05-23T13:58:00.521Z,90.00
2018-05-23T14:00:35.815Z,88.40
2018-05-23T14:03:13.500Z,90.50
2018-05-23T14:05:49.168Z,91.70
2018-05-23T14:08:25.019Z,91.40
2018-05-23T14:11:00.793Z,91.30
2018-05-23T14:13:36.528Z,91.40
2018-05-23T14:16:12.787Z,91.00
2018-05-23T14:18:49.395Z,92.00
2018-05-23T14:21:24.708Z,92.00
2018-05-23T14:24:00.286Z,92.20
2018-05-23T14:26:35.177Z,92.90
2018-05-23T14:29:10.826Z,91.50
2018-05-23T14:31:45.592Z,91.60
2018-05-23T14:34:20.699Z,91.30
2018-05-23T14:36:55.524Z,91.40
2018-05-23T14:39:30.476Z,91.90
2018-05-23T14:42:05.493Z,91.10
2018-05-23T14:44:40.425Z,90.30
2018-05-23T14:47:15.256Z,90.20
2018-05-23T14:49:50.903Z,90.80
2018-05-23T14:52:26.553Z,90.80
2018-05-23T14:55:02.407Z,90.80
2018-05-23T14:57:37.801Z,89.90
2018-05-23T15:00:13.505Z,89.70
2018-05-23T15:02:48.376Z,89.90
2018-05-23T15:05:24.296Z,90.70
2018-05-23T15:07:59.939Z,90.70
2018-05-23T15:10:35.342Z,90.80
2018-05-23T15:13:11.862Z,91.40
2018-05-23T15:15:47.405Z,91.90
2018-05-23T15:18:25.876Z,92.30
2018-05-23T15:21:00.648Z,92.20
2018-05-23T15:23:35.409Z,92.20
2018-05-23T15:26:11.125Z,93.60
2018-05-23T15:28:46.980Z,93.50
2018-05-23T15:31:22.069Z,94.10
2018-05-23T15:33:58.381Z,94.50
2018-05-23T15:36:33.621Z,94.10
2018-05-23T15:39:09.272Z,94.70
2018-05-23T15:41:44.145Z,94.80
2018-05-23T15:44:19.957Z,94.40
2018-05-23T15:46:55.604Z,95.40
2018-05-23T15:49:31.254Z,95.50
2018-05-23T15:52:06.021Z,96.60
2018-05-23T15:54:41.735Z,97.20
2018-05-23T15:57:16.811Z,97.00
2018-05-23T15:59:51.599Z,96.70
2018-05-23T16:02:26.637Z,96.30
2018-05-23T16:05:01.671Z,94.00
2018-05-23T16:07:39.776Z,95.10
2018-05-23T16:10:15.019Z,94.90
2018-05-23T16:12:50.648Z,94.80
2018-05-23T16:15:26.317Z,94.30
2018-05-23T16:18:01.968Z,94.70
2018-05-23T16:20:37.861Z,95.20
2018-05-23T16:23:14.288Z,96.40
2018-05-23T16:25:49.228Z,96.30
2018-05-23T16:28:23.948Z,97.10
2018-05-23T16:30:58.782Z,97.20
2018-05-23T16:33:33.609Z,96.40
2018-05-23T16:36:08.450Z,97.60
2018-05-23T16:38:43.683Z,97.70
2018-05-23T16:41:19.138Z,97.10
2018-05-23T16:43:54.117Z,97.00
2018-05-23T16:46:29.815Z,97.00
2018-05-23T16:49:05.459Z,98.00
2018-05-23T16:51:41.864Z,98.20
2018-05-23T16:54:17.184Z,98.20
2018-05-23T16:56:52.822Z,99.00
2018-05-23T16:59:28.427Z,99.40
2018-05-23T17:02:03.501Z,99.30
2018-05-23T17:04:38.283Z,98.80
2018-05-23T17:07:15.415Z,98.30
2018-05-23T17:09:50.801Z,98.30
2018-05-23T17:12:25.777Z,99.40
2018-05-23T17:15:01.499Z,99.90
2018-05-23T17:17:36.183Z,99.90
2018-05-23T17:20:11.006Z,99.70
2018-05-23T17:22:45.729Z,99.20
2018-05-23T17:25:20.811Z,98.60
2018-05-23T17:27:57.132Z,98.90
2018-05-23T17:30:32.176Z,98.90
2018-05-23T17:33:06.949Z,98.20
2018-05-23T17:35:44.701Z,98.10
2018-05-23T17:38:20.310Z,98.90
2018-05-23T17:40:55.995Z,99.60
2018-05-23T17:43:31.850Z,99.90
2018-05-23T17:46:06.678Z,99.90
2018-05-23T17:48:42.341Z,99.90
2018-05-23T17:51:18.182Z,99.90
2018-05-23T17:53:54.652Z,99.90
2018-05-23T17:56:29.893Z,99.90
2018-05-23T17:59:06.775Z,99.90
2018-05-23T18:01:43.284Z,99.90
2018-05-23T18:04:20.075Z,99.90
2018-05-23T18:06:55.990Z,99.90
2018-05-23T18:12:34.729Z,99.90
2018-05-23T18:15:10.160Z,99.90
2018-05-23T18:17:45.027Z,99.90
2018-05-23T18:20:20.635Z,99.90
2018-05-23T18:22:56.497Z,99.90
2018-05-23T18:25:31.525Z,99.90
2018-05-23T18:28:06.560Z,99.90
2018-05-23T18:30:42.225Z,99.90
2018-05-23T18:33:17.075Z,99.90
2018-05-23T18:35:52.700Z,99.90
2018-05-23T18:38:27.532Z,99.90
2018-05-23T18:41:03.530Z,99.90
2018-05-23T18:43:39.034Z,99.90
2018-05-23T18:46:13.820Z,99.90
2018-05-23T18:48:49.609Z,99.90
2018-05-23T18:51:24.437Z,99.90
2018-05-23T18:53:59.472Z,99.90
2018-05-23T18:56:36.558Z,99.90
2018-05-23T18:59:11.809Z,99.90
2018-05-23T19:01:46.840Z,99.90
2018-05-23T19:04:22.428Z,99.90
2018-05-23T19:06:58.147Z,99.90
2018-05-23T19:09:34.394Z,99.90
2018-05-23T19:12:09.644Z,99.90
2018-05-23T19:14:44.773Z,99.90
2018-05-23T19:17:19.607Z,99.90
2018-05-23T19:19:56.182Z,99.90
2018-05-23T19:22:30.901Z,99.90
2018-05-23T19:25:05.667Z,99.90
2018-05-23T19:27:41.674Z,99.90
2018-05-23T19:30:18.220Z,99.90
2018-05-23T19:35:57.826Z,99.90
2018-05-23T19:38:32.871Z,99.90
2018-05-23T19:41:08.729Z,99.90
2018-05-23T19:43:44.571Z,99.90
2018-05-23T19:46:20.352Z,99.90
2018-05-23T19:48:55.456Z,99.90
2018-05-23T19:51:31.312Z,99.90
2018-05-23T19:54:06.758Z,99.90
2018-05-23T19:56:42.560Z,99.90
2018-05-23T19:59:19.079Z,99.90
2018-05-23T20:01:54.262Z,99.90
2018-05-23T20:04:28.989Z,99.90
2018-05-23T20:07:05.005Z,99.90
2018-05-23T20:09:40.858Z,99.90
2018-05-23T20:12:16.509Z,99.90
2018-05-23T20:14:51.553Z,99.90
2018-05-23T20:17:30.878Z,99.90
2018-05-23T20:20:07.553Z,99.90
2018-05-23T20:22:42.997Z,99.90
2018-05-23T20:25:18.035Z,99.90
2018-05-23T20:27:53.846Z,99.90
2018-05-23T20:30:29.547Z,99.90
2018-05-23T20:33:05.399Z,99.90
2018-05-23T20:35:40.839Z,99.90
2018-05-23T20:38:18.091Z,99.90
2018-05-23T20:40:57.052Z,99.90
2018-05-23T20:43:35.992Z,99.90
2018-05-23T20:46:10.980Z,99.90
2018-05-23T20:48:47.278Z,99.90
2018-05-23T20:51:22.920Z,99.90
2018-05-23T20:53:59.410Z,99.90
2018-05-23T20:56:34.841Z,99.90
2018-05-23T20:59:09.875Z,99.90
2018-05-23T21:01:47.163Z,99.90
2018-05-23T21:04:23.370Z,99.90
2018-05-23T21:06:59.491Z,99.90
2018-05-23T21:09:34.319Z,99.90
2018-05-23T21:12:09.358Z,99.90
2018-05-23T21:14:45.836Z,99.90
2018-05-23T21:17:21.205Z,99.90
2018-05-23T21:19:57.531Z,99.90
2018-05-23T21:22:34.198Z,99.90
2018-05-23T21:25:09.397Z,99.90
2018-05-23T21:27:45.522Z,99.90
2018-05-23T21:33:25.878Z,99.90
2018-05-23T21:36:00.710Z,99.90
2018-05-23T21:38:35.753Z,99.90
2018-05-23T21:41:11.397Z,99.90
2018-05-23T21:43:47.053Z,99.90
2018-05-23T21:46:27.591Z,99.90
2018-05-23T21:49:03.275Z,99.90
2018-05-23T21:51:39.218Z,99.90
2018-05-23T21:54:16.337Z,99.90
2018-05-23T21:56:51.647Z,99.90
2018-05-23T21:59:27.063Z,99.90
2018-05-23T22:02:03.704Z,99.90
2018-05-23T22:04:41.192Z,99.90
2018-05-23T22:07:16.906Z,99.90
2018-05-23T22:09:51.938Z,99.90
2018-05-23T22:12:27.323Z,99.90
2018-05-23T22:15:04.054Z,99.90
2018-05-23T22:17:39.712Z,99.90
2018-05-23T22:20:14.476Z,99.90
2018-05-23T22:22:50.564Z,99.90
2018-05-23T22:25:25.221Z,99.90
2018-05-23T22:28:00.051Z,99.90
2018-05-23T22:30:35.731Z,99.90
2018-05-23T22:33:11.350Z,99.90
2018-05-23T22:35:47.625Z,99.90
2018-05-23T22:38:23.015Z,99.90
2018-05-23T22:40:59.529Z,99.90
2018-05-23T22:43:34.256Z,99.90
2018-05-23T22:46:10.723Z,99.90
2018-05-23T22:48:45.760Z,99.90
2018-05-23T22:51:21.207Z,99.90
2018-05-23T22:53:57.068Z,99.90
2018-05-23T22:56:31.892Z,99.90
2018-05-23T22:59:07.746Z,99.90
2018-05-23T23:01:42.574Z,99.90
2018-05-23T23:04:17.610Z,99.90
2018-05-23T23:06:53.257Z,99.90
2018-05-23T23:09:28.294Z,99.90
2018-05-23T23:12:03.740Z,99.90
2018-05-23T23:17:43.199Z,99.90
2018-05-23T23:20:19.359Z,99.90
2018-05-23T23:22:55.829Z,99.90
2018-05-23T23:25:32.398Z,99.90
2018-05-23T23:28:10.923Z,99.90
2018-05-23T23:30:45.950Z,99.90
2018-05-23T23:33:22.357Z,99.90
2018-05-23T23:35:58.274Z,99.90
2018-05-23T23:38:34.545Z,99.90
2018-05-23T23:41:10.196Z,99.90
2018-05-23T23:43:45.024Z,99.90
2018-05-23T23:46:20.265Z,99.90
2018-05-23T23:48:55.702Z,99.90
2018-05-23T23:51:31.352Z,99.90
2018-05-23T23:54:06.183Z,99.90
2018-05-23T23:56:40.987Z,99.90
2018-05-23T23:59:15.847Z,99.90
